Terminal Aerodrome Forecast
Issued by NWS

Home | Current Version | Previous Version | Graphics & Text | Print | Product List | Glossary On
Versions: 1 2 3 4 5 6 7 8 9 10 11 12
000
FTUS45 KGGW 192330
TAFOLF
TAF
KOLF 192330Z 2000/2024 27014KT P6SM BKN090
     FM200100 27009KT P6SM BKN110
     FM200200 27006KT P6SM SCT110=

USA.gov is the U.S. government's official web portal to all federal, state and local government web resources and services.